• Join FlightAware (Why Join?)
  • Login
  • US Flag 
06:51PM EDT


 

Airport Tracker/Info


-or-


 

Live Flight TrackerFlight Track Log ✈ SWA318 ✈ 07-Apr-2013 ✈ KLAS - KPHX

Flight Track Log - Related Links

Times and Time Zones

All times are in EDT time to prevent confusion due to time zone crossing. See the SWA318 flight status page for this flight to view local times or setup timezone preferences in your user account.

Time Position Orientation Groundspeed Altitude Reporting Facility
EDT Latitude Longitude Course Direction KTS MPH feet Rate Location/Type
01:12PM 36.0756 -115.1658 271° West 159 183 3,000  Level Los Angeles Center
01:13PM 36.0761 -115.1975 271° West 169 194 4,100 2,040 Climbing Los Angeles Center
01:14PM 36.0703 -115.2458 262° West 218 251 5,600 1,920 Climbing Los Angeles Center
01:14PM 36.0517 -115.2642 219° Southwest 250 288 6,100 1,320 Climbing Los Angeles Center
01:15PM 36.0022 -115.2853 199° South 268 308 7,000 2,160 Climbing Los Angeles Center
01:16PM 35.9347 -115.2564 161° South 281 323 10,100 2,220 Climbing Los Angeles Center
01:17PM 35.9161 -115.1175 99° East 341 392 11,700 1,800 Climbing Los Angeles Center
01:18PM 35.9033 -115.0083 98° East 384 442 13,900 2,640 Climbing Los Angeles Center
01:19PM 35.8839 -114.8356 98° East 420 483 17,200 2,700 Climbing Los Angeles Center
01:20PM 35.8644 -114.6825 99° East 447 514 19,600 2,220 Climbing Los Angeles Center
01:21PM 35.8219 -114.5328 109° East 467 537 21,800 1,980 Climbing Los Angeles Center
01:22PM 35.7478 -114.3950 124° Southeast 481 554 23,700 1,740 Climbing Los Angeles Center
01:23PM 35.6675 -114.2417 123° Southeast 493 567 25,500 1,560 Climbing Los Angeles Center
01:24PM 35.5903 -114.0969 123° Southeast 506 582 27,000 720 Climbing Los Angeles Center
01:25PM 35.4956 -113.9217 124° Southeast 516 594 27,000  Level Los Angeles Center
01:26PM 35.4175 -113.7756 123° Southeast 516 594 27,000  Level Los Angeles Center
01:27PM 35.3389 -113.6308 124° Southeast 514 592 27,000  Level Los Angeles Center
01:28PM 35.2600 -113.4867 124° Southeast 516 594 27,000  Level Los Angeles Center
01:29PM 35.1819 -113.3428 124° Southeast 516 594 27,000  Level Los Angeles Center
01:30PM 35.0886 -113.1731 124° Southeast 513 590 27,000  Level Los Angeles Center
01:31PM 35.0078 -113.0464 128° Southeast 491 565 27,000  Level Los Angeles Center
01:32PM 34.9203 -112.9200 130° Southeast 492 566 27,000  Level Albuquerque Center
01:33PM 34.8347 -112.7936 129° Southeast 490 564 27,000 -480 Level Albuquerque Center
01:34PM 34.7311 -112.6908 141° Southeast 485 558 26,100 -1,200 Descending Albuquerque Center
01:35PM 34.6036 -112.5814 145° Southeast 472 543 24,600 -1,920 Descending Albuquerque Center
01:36PM 34.5017 -112.4922 144° Southeast 461 531 22,200 -2,280 Descending Albuquerque Center
01:37PM 34.4050 -112.4094 145° Southeast 449 517 19,900 -2,160 Descending Albuquerque Center
01:39PM 34.3086 -112.3281 145° Southeast 433 498 17,800 -1,860 Descending Albuquerque Center
01:40PM 34.2225 -112.2539 145° Southeast 395 455 16,100 -1,800 Descending Albuquerque Center
01:41PM 34.1247 -112.1678 144° Southeast 366 421 14,200 -1,500 Descending Albuquerque Center
01:42PM 34.0403 -112.1408 165° South 323 372 13,100 -1,260 Descending Albuquerque Center
01:43PM 33.9547 -112.1494 185° South 311 358 11,600 -1,020 Descending Albuquerque Center
01:44PM 33.8756 -112.1619 187° South 293 337 11,000 -720 Descending Albuquerque Center
01:45PM 33.8064 -112.1772 190° South 260 299 10,200 -1,020 Descending Albuquerque Center
01:46PM 33.7272 -112.1933 190° South 244 281 9,000 -1,080 Descending Albuquerque Center
01:47PM 33.6617 -112.2078 190° South 240 276 8,000 -540 Descending Albuquerque Center
01:48PM 33.6019 -112.2203 190° South 223 257 8,000 -480 Level Albuquerque Center
01:49PM 33.5450 -112.2422 198° South 217 250 7,100 -960 Descending Albuquerque Center
01:50PM 33.4886 -112.2614 196° South 214 246 6,100 -1,260 Descending Albuquerque Center
01:51PM 33.4508 -112.1989 126° Southeast 191 220 4,600 -1,260 Descending Albuquerque Center
01:52PM 33.4406 -112.1450 103° East 168 193 3,600 -1,200 Descending Albuquerque Center
01:53PM 33.4400 -112.0953 91° East 153 176 2,200 -1,020 Descending Albuquerque Center
01:54PM 33.4411 -112.0456 88° East 151 174 1,500 -540 Descending Albuquerque Center
01:55PM 33.4406 -111.9978 91° East 152 175 1,100 -420 Descending Albuquerque Center